Time;durP1;ratioP1;P1;durP2;ratioP2;P2;SDS_P1;SDS_P2;PMS_P1;PMS_P2;Temp;Humidity;BMP_temperature;BMP_pressure;BME280_temperature;BME280_humidity;BME280_pressure;Samples;Min_cycle;Max_cycle;Signal;HPM_P1;HPM_P2
2022/01/01 00:00:29;;;;;;;53.67;22.13;;;1.50;99.90;;;;;;5116408;28;20031;-83
2022/01/01 00:02:56;;;;;;;50.58;21.95;;;1.50;99.90;;;;;;5114226;28;20028;-83
2022/01/01 00:05:25;;;;;;;49.17;21.33;;;1.50;99.90;;;;;;5114254;28;20024;-82
2022/01/01 00:07:51;;;;;;;48.80;21.73;;;1.50;99.90;;;;;;5114558;28;20111;-83
2022/01/01 00:10:19;;;;;;;50.05;21.33;;;1.50;99.90;;;;;;5115525;28;20126;-84
2022/01/01 00:12:47;;;;;;;48.63;20.10;;;1.50;99.90;;;;;;5116730;28;20062;-85
2022/01/01 00:15:14;;;;;;;45.17;19.42;;;1.50;99.90;;;;;;5119669;28;20024;-85
2022/01/01 00:17:41;;;;;;;46.00;20.20;;;1.50;99.90;;;;;;5126850;28;20469;-84
2022/01/01 00:20:09;;;;;;;39.13;16.75;;;1.60;99.90;;;;;;5123702;28;20120;-83
2022/01/01 00:22:37;;;;;;;41.92;19.38;;;1.50;99.90;;;;;;5115831;28;20136;-86
2022/01/01 00:32:22;;;;;;;30.60;14.38;;;1.60;99.90;;;;;;5115905;28;20041;-85
2022/01/01 00:34:50;;;;;;;33.53;14.90;;;1.60;99.90;;;;;;5116025;28;20114;-85
2022/01/01 00:37:16;;;;;;;33.58;16.20;;;1.60;99.90;;;;;;5099233;28;20031;-85
2022/01/01 00:39:42;;;;;;;30.40;15.20;;;1.60;99.90;;;;;;5115710;28;20032;-85
2022/01/01 00:42:08;;;;;;;30.33;14.98;;;1.60;99.90;;;;;;5115811;28;20124;-85
2022/01/01 00:44:35;;;;;;;30.67;15.13;;;1.60;99.90;;;;;;5116738;28;20027;-84
2022/01/01 00:47:01;;;;;;;31.33;14.70;;;1.60;99.90;;;;;;5117363;28;20027;-85
2022/01/01 00:49:59;;;;;;;33.75;16.95;;;1.60;99.90;;;;;;5115650;28;20027;-85
2022/01/01 01:02:41;;;;;;;29.13;13.70;;;1.60;99.90;;;;;;5115513;28;20024;-84
2022/01/01 01:05:07;;;;;;;27.33;13.32;;;1.60;99.90;;;;;;5115156;28;20024;-85
2022/01/01 01:07:34;;;;;;;26.50;13.13;;;1.70;99.90;;;;;;5114099;28;20522;-84
2022/01/01 01:10:00;;;;;;;28.55;13.95;;;1.70;99.90;;;;;;5115419;28;20055;-86
2022/01/01 01:12:34;;;;;;;28.55;13.73;;;1.70;99.90;;;;;;5114967;28;20028;-85
2022/01/01 01:15:00;;;;;;;21.52;11.05;;;1.70;99.90;;;;;;5116213;27;20024;-87
2022/01/01 01:17:27;;;;;;;30.85;12.88;;;1.70;99.90;;;;;;5120988;28;20453;-85
2022/01/01 01:19:54;;;;;;;26.83;13.30;;;1.70;99.90;;;;;;5125046;28;20024;-84
2022/01/01 01:36:12;;;;;;;23.95;12.25;;;1.80;99.90;;;;;;5110575;28;20081;-84
2022/01/01 01:39:33;;;;;;;23.05;12.10;;;1.80;99.90;;;;;;5116344;28;20099;-83
2022/01/01 01:42:02;;;;;;;25.88;12.48;;;1.80;99.90;;;;;;5116283;28;20082;-83
2022/01/01 01:48:18;;;;;;;23.60;11.65;;;1.80;99.90;;;;;;5115424;28;20051;-85
2022/01/01 01:50:44;;;;;;;20.48;11.70;;;1.80;99.90;;;;;;5096553;28;20070;-85
2022/01/01 01:53:11;;;;;;;21.98;10.82;;;1.80;99.90;;;;;;5115275;28;20450;-84
2022/01/01 01:55:39;;;;;;;25.85;12.23;;;1.90;99.90;;;;;;5115392;28;20027;-83
2022/01/01 01:58:04;;;;;;;22.20;11.27;;;1.90;99.90;;;;;;5096937;28;20110;-84
2022/01/01 02:03:14;;;;;;;19.77;10.43;;;1.90;99.90;;;;;;5115269;28;20066;-84
2022/01/01 02:05:41;;;;;;;21.50;11.05;;;1.90;99.90;;;;;;5096681;28;20110;-84
2022/01/01 02:08:09;;;;;;;19.45;10.35;;;1.90;99.90;;;;;;5096968;28;20023;-84
2022/01/01 02:10:36;;;;;;;21.83;11.27;;;1.90;99.90;;;;;;5098626;28;20091;-84
2022/01/01 02:13:13;;;;;;;19.33;10.48;;;1.90;99.90;;;;;;5115937;28;20032;-84
2022/01/01 02:18:04;;;;;;;19.75;10.10;;;2.00;99.90;;;;;;5114878;28;20027;-85
2022/01/01 02:20:30;;;;;;;16.77;9.60;;;2.00;99.90;;;;;;5121348;28;20453;-84
2022/01/01 02:23:00;;;;;;;19.98;10.45;;;2.00;99.90;;;;;;5121626;28;20027;-85
2022/01/01 02:25:26;;;;;;;16.90;10.00;;;2.00;99.90;;;;;;5120107;28;20024;-84
2022/01/01 02:27:54;;;;;;;20.40;11.18;;;2.00;99.90;;;;;;5115241;28;20032;-85
2022/01/01 02:30:21;;;;;;;27.58;11.85;;;2.10;99.90;;;;;;5097060;28;20031;-84
2022/01/01 02:32:47;;;;;;;19.92;10.52;;;2.00;99.90;;;;;;5115255;28;20020;-86
2022/01/01 02:35:16;;;;;;;27.30;11.13;;;2.00;99.90;;;;;;5096664;28;20039;-85
2022/01/01 02:37:42;;;;;;;17.52;9.00;;;2.10;99.90;;;;;;5097207;28;20070;-84
2022/01/01 02:40:09;;;;;;;21.23;10.82;;;2.10;99.90;;;;;;5097006;28;20059;-84
2022/01/01 02:42:37;;;;;;;18.70;9.68;;;2.10;99.90;;;;;;5096490;28;20024;-84
2022/01/01 02:45:07;;;;;;;19.17;9.15;;;2.10;99.90;;;;;;5114566;28;20031;-85
2022/01/01 02:47:33;;;;;;;21.07;9.83;;;2.10;99.90;;;;;;5114834;28;20354;-84
2022/01/01 02:49:59;;;;;;;14.85;8.40;;;2.10;99.90;;;;;;5114275;28;20072;-84
2022/01/01 02:52:25;;;;;;;13.50;7.65;;;2.20;99.90;;;;;;5096402;28;20538;-83
2022/01/01 02:54:50;;;;;;;18.95;8.15;;;2.20;99.90;;;;;;5114906;28;20030;-85
2022/01/01 02:57:17;;;;;;;17.23;7.10;;;2.20;99.90;;;;;;5114609;28;20411;-85
2022/01/01 02:59:42;;;;;;;16.38;7.03;;;2.20;99.90;;;;;;5096090;28;20077;-84
2022/01/01 03:02:10;;;;;;;18.02;7.38;;;2.30;99.90;;;;;;5096136;28;20023;-85
2022/01/01 03:04:35;;;;;;;13.60;6.82;;;2.30;99.90;;;;;;5096178;28;20522;-85
2022/01/01 03:07:01;;;;;;;24.25;7.43;;;2.30;99.90;;;;;;5097253;28;20032;-84
2022/01/01 03:09:34;;;;;;;18.67;7.28;;;2.40;99.90;;;;;;5095814;28;20448;-84
2022/01/01 03:12:04;;;;;;;12.80;6.70;;;2.40;99.90;;;;;;5114492;28;20028;-83
2022/01/01 03:14:30;;;;;;;21.83;8.13;;;2.40;99.90;;;;;;5096201;28;20027;-84
2022/01/01 03:16:57;;;;;;;25.75;7.72;;;2.40;99.90;;;;;;5115981;28;20370;-83
2022/01/01 03:19:22;;;;;;;19.60;7.20;;;2.40;99.90;;;;;;5100182;28;20051;-84
2022/01/01 03:21:48;;;;;;;19.73;7.65;;;2.50;99.90;;;;;;5118032;28;20090;-84
2022/01/01 03:24:14;;;;;;;16.08;7.05;;;2.50;99.90;;;;;;5119697;28;20050;-83
2022/01/01 03:30:25;;;;;;;17.55;7.55;;;2.60;99.90;;;;;;5120494;28;20058;-83
2022/01/01 03:36:12;;;;;;;27.75;7.32;;;2.60;99.90;;;;;;5118780;28;20538;-84
2022/01/01 03:38:38;;;;;;;32.40;7.53;;;2.70;99.90;;;;;;5118481;28;20019;-84
2022/01/01 03:41:05;;;;;;;9.75;5.85;;;2.70;99.90;;;;;;5118314;28;20023;-83
2022/01/01 03:43:31;;;;;;;13.85;5.80;;;2.70;99.90;;;;;;5099580;28;20034;-84
2022/01/01 03:45:56;;;;;;;11.02;5.70;;;2.80;99.90;;;;;;5117942;28;20448;-86
2022/01/01 03:48:23;;;;;;;13.18;5.95;;;2.80;99.90;;;;;;5100529;28;20523;-84
2022/01/01 03:50:49;;;;;;;13.27;5.88;;;2.80;99.90;;;;;;5118516;28;20024;-85
2022/01/01 03:53:16;;;;;;;19.17;5.60;;;2.80;99.90;;;;;;5099581;28;20461;-84
2022/01/01 03:55:42;;;;;;;31.17;6.95;;;2.90;99.90;;;;;;5119304;28;20059;-86
2022/01/01 03:58:08;;;;;;;22.08;6.60;;;2.90;99.90;;;;;;5101856;28;20031;-86
2022/01/01 04:00:34;;;;;;;10.95;5.88;;;3.00;99.90;;;;;;5099997;28;20073;-87
2022/01/01 04:03:06;;;;;;;16.92;6.10;;;3.00;99.90;;;;;;5120384;28;20028;-86
2022/01/01 04:05:34;;;;;;;14.90;6.10;;;3.00;99.90;;;;;;5099868;28;20032;-87
2022/01/01 04:08:00;;;;;;;15.65;6.85;;;3.10;99.90;;;;;;5099819;28;20110;-88
2022/01/01 04:10:26;;;;;;;11.93;6.88;;;3.10;99.90;;;;;;5117633;28;20031;-87
2022/01/01 04:12:52;;;;;;;11.85;6.07;;;3.20;99.90;;;;;;5118035;28;20095;-87
2022/01/01 04:15:17;;;;;;;12.48;6.70;;;3.20;99.90;;;;;;5117473;28;20024;-87
2022/01/01 04:17:43;;;;;;;11.30;6.35;;;3.30;99.90;;;;;;5117089;28;20484;-86
2022/01/01 04:20:09;;;;;;;12.07;6.18;;;3.30;99.90;;;;;;5099123;28;20050;-85
2022/01/01 04:22:35;;;;;;;9.52;5.90;;;3.40;99.90;;;;;;5100060;28;20119;-85
2022/01/01 04:25:01;;;;;;;9.10;5.30;;;3.40;99.90;;;;;;5124927;28;20474;-83
2022/01/01 04:27:26;;;;;;;8.45;5.10;;;3.40;99.90;;;;;;5102779;28;20035;-84
2022/01/01 04:29:52;;;;;;;8.65;5.00;;;3.50;99.90;;;;;;5119435;28;20016;-84
2022/01/01 04:32:18;;;;;;;7.93;4.93;;;3.50;99.90;;;;;;5086069;28;20028;-85
2022/01/01 04:34:46;;;;;;;11.32;6.00;;;3.50;99.90;;;;;;5098936;28;20028;-87
2022/01/01 04:37:13;;;;;;;11.60;6.20;;;3.60;99.90;;;;;;5098575;28;20044;-86
2022/01/01 04:39:40;;;;;;;10.27;5.30;;;3.70;99.90;;;;;;5117069;28;20059;-86
2022/01/01 04:42:06;;;;;;;10.77;5.93;;;3.70;99.90;;;;;;5098426;28;20038;-85
2022/01/01 04:44:32;;;;;;;8.82;5.63;;;3.70;99.90;;;;;;5116520;28;20130;-88
2022/01/01 04:46:58;;;;;;;8.73;4.85;;;3.80;99.90;;;;;;5116910;28;20035;-85
2022/01/01 04:49:24;;;;;;;10.93;5.40;;;3.80;99.90;;;;;;5098469;28;20110;-86
2022/01/01 04:51:49;;;;;;;11.25;5.40;;;3.90;99.90;;;;;;5099094;28;20122;-86
2022/01/01 04:54:16;;;;;;;8.85;5.03;;;3.90;99.90;;;;;;5097594;28;20393;-86
2022/01/01 04:56:47;;;;;;;7.35;4.70;;;3.90;99.90;;;;;;5116482;28;20024;-86
2022/01/01 04:59:15;;;;;;;8.70;5.03;;;3.90;99.90;;;;;;5116682;28;20106;-86
2022/01/01 05:01:41;;;;;;;7.03;4.38;;;4.00;99.90;;;;;;5098248;28;20055;-86
2022/01/01 05:04:07;;;;;;;6.20;4.00;;;4.00;99.90;;;;;;5097990;28;20031;-86
2022/01/01 05:06:34;;;;;;;8.52;4.80;;;4.00;99.90;;;;;;5098099;28;20481;-85
2022/01/01 05:09:00;;;;;;;7.53;5.20;;;4.00;99.90;;;;;;5098665;28;20028;-85
2022/01/01 05:11:25;;;;;;;8.68;5.03;;;4.10;99.90;;;;;;5099206;28;20468;-86
2022/01/01 05:13:51;;;;;;;8.45;5.50;;;4.10;99.90;;;;;;5116103;28;20019;-86
2022/01/01 05:16:18;;;;;;;10.45;6.78;;;4.10;99.90;;;;;;5099380;28;20046;-86
2022/01/01 05:18:45;;;;;;;10.20;7.07;;;4.20;99.90;;;;;;5117591;28;20019;-87
2022/01/01 05:21:11;;;;;;;11.88;8.18;;;4.30;99.90;;;;;;5098174;28;20472;-86
2022/01/01 05:23:37;;;;;;;16.70;9.85;;;4.30;99.90;;;;;;5097789;28;20024;-87
2022/01/01 05:26:03;;;;;;;13.90;9.27;;;4.40;99.90;;;;;;5115665;28;20027;-87
2022/01/01 05:28:29;;;;;;;13.65;9.05;;;4.40;99.90;;;;;;5097841;28;20407;-86
2022/01/01 05:30:58;;;;;;;14.43;8.68;;;4.50;99.90;;;;;;5099464;28;20039;-85
2022/01/01 05:33:23;;;;;;;14.38;8.95;;;4.60;99.90;;;;;;5123782;28;20051;-86
2022/01/01 05:35:49;;;;;;;14.45;9.18;;;4.60;99.90;;;;;;5123752;28;20047;-86
2022/01/01 05:38:17;;;;;;;15.30;9.52;;;4.70;99.90;;;;;;5097663;28;20055;-86
2022/01/01 05:40:43;;;;;;;15.40;10.20;;;4.70;99.90;;;;;;5097061;28;20051;-88
2022/01/01 05:43:13;;;;;;;18.23;11.52;;;4.80;99.90;;;;;;5115964;28;20077;-87
2022/01/01 05:45:40;;;;;;;18.00;10.75;;;4.80;99.90;;;;;;5115803;28;20469;-87
2022/01/01 05:48:05;;;;;;;19.20;12.77;;;4.80;99.90;;;;;;5096918;28;20023;-84
2022/01/01 05:50:31;;;;;;;30.58;17.55;;;4.80;99.90;;;;;;5116075;28;20438;-85
2022/01/01 05:52:56;;;;;;;25.08;14.80;;;4.90;99.90;;;;;;5116315;28;20457;-84
2022/01/01 05:55:22;;;;;;;25.70;15.70;;;4.90;99.90;;;;;;5115184;28;20481;-84
2022/01/01 05:57:48;;;;;;;25.27;16.75;;;4.90;99.90;;;;;;5097376;28;20031;-83
2022/01/01 06:00:14;;;;;;;23.25;16.17;;;4.90;99.90;;;;;;5080234;28;20036;-84
2022/01/01 06:02:43;;;;;;;20.02;13.70;;;5.00;99.90;;;;;;5097059;28;20023;-85
2022/01/01 06:05:10;;;;;;;19.45;12.82;;;5.00;99.90;;;;;;5096943;28;20036;-85
2022/01/01 06:07:36;;;;;;;17.85;11.55;;;5.00;99.90;;;;;;5096979;28;20027;-84
2022/01/01 06:10:03;;;;;;;16.73;10.57;;;5.00;99.90;;;;;;5096563;28;20389;-85
2022/01/01 06:12:28;;;;;;;14.60;9.50;;;5.10;99.90;;;;;;5111313;27;20083;-84
2022/01/01 06:14:54;;;;;;;16.77;10.07;;;5.10;99.90;;;;;;5135689;27;20415;-86
2022/01/01 06:17:20;;;;;;;16.75;11.02;;;5.20;99.90;;;;;;5135344;27;20381;-86
2022/01/01 06:19:46;;;;;;;15.98;10.40;;;5.20;99.90;;;;;;5116907;27;20517;-86
2022/01/01 06:22:14;;;;;;;17.92;10.38;;;5.20;99.90;;;;;;5135178;27;20027;-86
2022/01/01 06:24:39;;;;;;;16.13;10.18;;;5.20;99.90;;;;;;5116875;27;20023;-85
2022/01/01 06:27:06;;;;;;;17.05;9.77;;;5.30;99.90;;;;;;5135672;27;20408;-86
2022/01/01 06:29:31;;;;;;;16.63;10.10;;;5.30;99.90;;;;;;5116380;28;20381;-86
2022/01/01 06:31:57;;;;;;;17.67;10.07;;;5.40;99.90;;;;;;5117053;28;20024;-86
2022/01/01 06:34:23;;;;;;;15.95;9.48;;;5.40;99.90;;;;;;5136233;27;20028;-84
2022/01/01 06:36:51;;;;;;;17.20;10.20;;;5.40;99.90;;;;;;5140010;27;20051;-84
2022/01/01 06:39:17;;;;;;;14.50;9.02;;;5.40;99.90;;;;;;5139151;28;20023;-86
2022/01/01 06:41:43;;;;;;;17.02;10.10;;;5.40;99.90;;;;;;5099998;28;20032;-88
2022/01/01 06:44:10;;;;;;;19.05;11.23;;;5.50;99.90;;;;;;5117618;28;20483;-87
2022/01/01 06:46:35;;;;;;;18.15;10.80;;;5.50;99.90;;;;;;5116927;28;20110;-87
2022/01/01 06:49:01;;;;;;;16.15;10.90;;;5.50;99.90;;;;;;5135127;28;20178;-86
2022/01/01 06:51:27;;;;;;;17.05;9.75;;;5.50;99.90;;;;;;5119253;27;20106;-86
2022/01/01 06:53:52;;;;;;;13.52;8.48;;;5.50;99.90;;;;;;5139770;27;20084;-87
2022/01/01 06:56:18;;;;;;;14.25;8.65;;;5.60;99.90;;;;;;5120969;27;20031;-86
2022/01/01 06:58:47;;;;;;;13.13;7.28;;;5.60;99.90;;;;;;5121322;27;20077;-86
2022/01/01 07:01:12;;;;;;;11.98;7.18;;;5.70;99.90;;;;;;5139521;27;20031;-85
2022/01/01 07:03:38;;;;;;;15.95;8.95;;;5.70;99.90;;;;;;5120641;27;20084;-84
2022/01/01 07:06:03;;;;;;;15.95;8.90;;;5.70;99.90;;;;;;5139019;27;20077;-84
2022/01/01 07:08:29;;;;;;;13.45;7.97;;;5.80;99.90;;;;;;5139164;27;20110;-85
2022/01/01 07:10:55;;;;;;;16.48;9.40;;;5.80;99.90;;;;;;5139614;27;20219;-88
2022/01/01 07:13:21;;;;;;;16.17;9.60;;;5.80;99.90;;;;;;5120922;27;20076;-86
2022/01/01 07:15:47;;;;;;;15.10;8.93;;;5.90;99.90;;;;;;5120850;27;20031;-85
2022/01/01 07:18:13;;;;;;;16.90;9.38;;;5.90;99.90;;;;;;5139084;27;20026;-89
2022/01/01 07:20:39;;;;;;;15.80;9.43;;;6.00;99.90;;;;;;5120799;27;20023;-86
2022/01/01 07:23:06;;;;;;;14.80;8.23;;;6.00;99.90;;;;;;5138910;27;20031;-85
2022/01/01 07:25:32;;;;;;;16.15;8.82;;;6.00;99.90;;;;;;5120114;27;20023;-84
2022/01/01 07:27:57;;;;;;;14.05;8.18;;;6.10;99.90;;;;;;5120524;27;20023;-83
2022/01/01 07:30:23;;;;;;;13.98;8.55;;;6.10;99.90;;;;;;5131263;27;20026;-86
2022/01/01 07:32:49;;;;;;;15.32;8.88;;;6.10;99.90;;;;;;5099993;28;20024;-84
2022/01/01 07:35:16;;;;;;;14.13;8.65;;;6.20;99.90;;;;;;5122523;27;20110;-84
2022/01/01 07:37:43;;;;;;;15.95;9.07;;;6.10;99.90;;;;;;5119208;27;20036;-86
2022/01/01 07:40:11;;;;;;;18.60;10.68;;;6.20;99.90;;;;;;5141421;27;20023;-84
2022/01/01 07:42:37;;;;;;;14.35;8.82;;;6.20;99.90;;;;;;5121944;28;20027;-85
2022/01/01 07:45:04;;;;;;;15.98;8.88;;;6.20;99.90;;;;;;5117861;28;20034;-84
2022/01/01 07:47:30;;;;;;;14.85;8.75;;;6.20;99.90;;;;;;5099692;28;20028;-87
2022/01/01 07:49:55;;;;;;;14.32;8.75;;;6.20;99.90;;;;;;5104391;27;20457;-85
2022/01/01 07:52:21;;;;;;;13.65;8.10;;;6.30;99.90;;;;;;5116309;27;20037;-85
2022/01/01 07:54:46;;;;;;;14.25;9.32;;;6.30;99.90;;;;;;5126152;27;20031;-85
2022/01/01 07:57:12;;;;;;;15.10;9.10;;;6.30;99.90;;;;;;5128127;27;20051;-85
2022/01/01 07:59:38;;;;;;;14.20;8.23;;;6.30;99.90;;;;;;5108607;27;20420;-85
2022/01/01 08:02:03;;;;;;;14.82;9.20;;;6.30;99.90;;;;;;5136103;27;20031;-86
2022/01/01 08:04:30;;;;;;;16.20;9.75;;;6.30;99.90;;;;;;5117121;28;20032;-86
2022/01/01 08:07:03;;;;;;;16.88;9.77;;;6.40;99.90;;;;;;5099140;28;20089;-86
2022/01/01 08:09:29;;;;;;;19.02;10.85;;;6.40;99.90;;;;;;5099574;28;20111;-84
2022/01/01 08:11:54;;;;;;;21.02;11.82;;;6.50;99.90;;;;;;5099372;28;20062;-85
2022/01/01 08:14:24;;;;;;;20.02;11.15;;;6.50;99.90;;;;;;5107379;28;20021;-85
2022/01/01 08:17:05;;;;;;;18.88;11.65;;;6.50;99.90;;;;;;5117083;28;20035;-86
2022/01/01 08:19:30;;;;;;;;;;;6.50;99.90;;;;;;5082532;28;20034;-86
2022/01/01 08:21:59;;;;;;;17.90;10.77;;;6.50;99.90;;;;;;5098889;28;19904;-85
2022/01/01 08:24:25;;;;;;;16.00;9.98;;;6.60;99.90;;;;;;5117604;28;20044;-86
2022/01/01 08:26:51;;;;;;;16.33;10.43;;;6.60;99.90;;;;;;5099247;28;20024;-88
2022/01/01 08:29:17;;;;;;;16.52;10.70;;;6.60;99.90;;;;;;5117420;28;20020;-87
2022/01/01 08:31:43;;;;;;;16.88;10.73;;;6.70;99.90;;;;;;5116935;28;20032;-85
2022/01/01 08:34:09;;;;;;;15.05;9.38;;;6.80;99.90;;;;;;5098159;28;20084;-88
2022/01/01 08:36:35;;;;;;;16.83;10.02;;;6.80;99.90;;;;;;5118707;28;20089;-88
2022/01/01 08:39:01;;;;;;;15.73;10.50;;;6.80;99.90;;;;;;5117719;28;20031;-87
2022/01/01 08:41:27;;;;;;;14.32;9.77;;;6.90;99.90;;;;;;5120586;28;20027;-86
2022/01/01 08:43:53;;;;;;;14.98;9.35;;;7.00;99.90;;;;;;5104655;28;20373;-85
2022/01/01 08:46:19;;;;;;;14.55;9.55;;;7.10;99.90;;;;;;5103308;28;20027;-87
2022/01/01 08:48:46;;;;;;;13.98;9.50;;;7.10;99.90;;;;;;5100760;28;20094;-84
2022/01/01 08:51:28;;;;;;;13.55;8.63;;;7.20;99.90;;;;;;5100557;28;20073;-86
2022/01/01 08:53:54;;;;;;;13.90;8.65;;;7.20;99.90;;;;;;5103473;28;20088;-87
2022/01/01 08:56:20;;;;;;;13.10;8.35;;;7.30;99.90;;;;;;5098558;28;20329;-88
2022/01/01 08:58:46;;;;;;;11.25;7.30;;;7.30;99.90;;;;;;5098471;28;20034;-88
2022/01/01 09:01:12;;;;;;;10.43;6.82;;;7.40;99.90;;;;;;5098190;28;20520;-86
2022/01/01 09:03:38;;;;;;;12.05;7.95;;;7.40;99.90;;;;;;5098934;28;20119;-87
2022/01/01 09:06:05;;;;;;;11.73;7.20;;;7.40;99.90;;;;;;5116627;28;20381;-87
2022/01/01 09:08:37;;;;;;;11.13;6.82;;;7.40;99.90;;;;;;5098326;28;20031;-89
2022/01/01 09:11:04;;;;;;;13.10;7.30;;;7.40;99.90;;;;;;5098147;28;20031;-86
2022/01/01 09:13:30;;;;;;;11.98;7.82;;;7.30;99.90;;;;;;5116653;28;20114;-87
2022/01/01 09:15:56;;;;;;;11.45;7.70;;;7.30;99.90;;;;;;5115045;28;20484;-87
2022/01/01 09:18:22;;;;;;;11.45;6.93;;;7.20;99.90;;;;;;5116123;28;20032;-86
2022/01/01 09:20:48;;;;;;;10.23;6.50;;;7.10;99.90;;;;;;5098315;28;20027;-86
2022/01/01 09:23:14;;;;;;;8.50;5.97;;;7.10;99.90;;;;;;5098099;28;20028;-87
2022/01/01 09:25:43;;;;;;;10.85;7.15;;;7.10;99.90;;;;;;5116597;28;20050;-87
2022/01/01 09:28:09;;;;;;;11.23;7.53;;;7.00;99.90;;;;;;5098365;28;20027;-86
2022/01/01 09:30:34;;;;;;;12.05;7.28;;;7.00;99.90;;;;;;5098309;28;20035;-87
2022/01/01 09:33:00;;;;;;;11.82;7.40;;;6.90;99.90;;;;;;5098389;28;20077;-85
2022/01/01 09:35:26;;;;;;;10.88;6.75;;;6.90;99.90;;;;;;5115061;28;20502;-86
2022/01/01 09:37:52;;;;;;;9.80;5.85;;;6.90;99.90;;;;;;5097291;28;20027;-86
2022/01/01 09:40:18;;;;;;;7.82;5.15;;;6.90;99.90;;;;;;5098050;28;20114;-88
2022/01/01 09:42:44;;;;;;;7.55;4.97;;;6.80;99.90;;;;;;5098331;28;20020;-85
2022/01/01 09:45:11;;;;;;;11.20;6.82;;;6.80;99.90;;;;;;5101107;28;20034;-84
2022/01/01 09:47:37;;;;;;;11.07;7.35;;;6.80;99.90;;;;;;5100685;28;20035;-85
2022/01/01 09:50:07;;;;;;;8.85;6.13;;;6.80;99.90;;;;;;5099214;28;20403;-85
2022/01/01 09:52:33;;;;;;;7.63;5.22;;;6.80;99.90;;;;;;5097184;28;20051;-87
2022/01/01 09:55:00;;;;;;;8.57;5.18;;;6.80;99.90;;;;;;5097730;28;20465;-90
2022/01/01 09:57:26;;;;;;;6.97;4.90;;;6.70;99.90;;;;;;5097699;28;20035;-91
2022/01/01 09:59:52;;;;;;;7.57;5.00;;;6.70;99.90;;;;;;5101015;28;20488;-94
2022/01/01 10:02:18;;;;;;;7.63;5.30;;;6.70;99.90;;;;;;5104686;28;20074;-94
2022/01/01 10:04:48;;;;;;;7.30;4.90;;;6.70;99.90;;;;;;5086254;28;20062;-93
2022/01/01 10:07:16;;;;;;;7.47;4.88;;;6.70;99.90;;;;;;5100562;28;20477;-92
2022/01/01 10:09:42;;;;;;;7.05;4.07;;;6.70;99.90;;;;;;5084511;28;20086;-94
2022/01/01 10:12:14;;;;;;;4.80;3.40;;;6.70;99.90;;;;;;5121838;28;20024;-95
2022/01/01 10:14:44;;;;;;;5.65;3.80;;;6.70;99.90;;;;;;5121181;28;20024;-92
2022/01/01 10:17:14;;;;;;;4.95;3.60;;;6.70;99.90;;;;;;5082523;28;20035;-88
2022/01/01 10:19:41;;;;;;;4.95;3.30;;;6.70;99.90;;;;;;5097259;28;20030;-88
2022/01/01 10:22:12;;;;;;;5.93;4.13;;;6.70;99.90;;;;;;5118851;28;20019;-91
2022/01/01 10:27:48;;;;;;;9.60;5.95;;;6.70;99.90;;;;;;5091985;28;19910;-93
2022/01/01 10:30:23;;;;;;;7.53;4.90;;;6.70;99.90;;;;;;5118233;28;20043;-90
2022/01/01 10:33:05;;;;;;;5.40;3.70;;;6.70;99.90;;;;;;5112721;28;20035;-92
2022/01/01 10:35:43;;;;;;;53.90;30.63;;;6.70;99.90;;;;;;5112843;28;20060;-86
2022/01/01 10:38:12;;;;;;;78.35;45.95;;;6.70;99.90;;;;;;5074521;28;20052;-85
2022/01/01 10:40:40;;;;;;;59.47;36.25;;;6.70;99.90;;;;;;5094829;28;20111;-88
2022/01/01 10:43:06;;;;;;;29.35;18.15;;;6.80;99.90;;;;;;5095370;28;20032;-86
2022/01/01 10:45:38;;;;;;;19.52;11.88;;;6.90;99.90;;;;;;5091214;28;20028;-86
2022/01/01 10:48:17;;;;;;;13.13;8.50;;;6.90;99.90;;;;;;5098685;28;20024;-89
2022/01/01 10:50:44;;;;;;;9.10;5.28;;;7.00;99.90;;;;;;5107546;28;20027;-89
2022/01/01 10:53:18;;;;;;;7.25;3.90;;;6.90;99.90;;;;;;5095814;28;20024;-91
2022/01/01 10:55:45;;;;;;;4.72;2.90;;;6.90;99.90;;;;;;5093283;28;20505;-90
2022/01/01 10:58:22;;;;;;;4.38;2.67;;;6.90;99.90;;;;;;5097087;28;20025;-93
2022/01/01 11:00:49;;;;;;;2.65;2.03;;;6.90;99.90;;;;;;5095917;28;20035;-88
2022/01/01 11:03:17;;;;;;;2.95;1.77;;;6.90;99.90;;;;;;5095189;28;20386;-88
2022/01/01 11:05:44;;;;;;;2.85;2.00;;;6.90;99.90;;;;;;5091910;28;20028;-90
2022/01/01 11:08:11;;;;;;;3.08;1.95;;;6.90;99.90;;;;;;5093364;28;20569;-91
2022/01/01 11:10:39;;;;;;;4.15;2.20;;;6.80;99.90;;;;;;5090877;28;20024;-84
2022/01/01 11:13:07;;;;;;;4.85;2.13;;;6.80;99.90;;;;;;5091015;28;20036;-86
2022/01/01 11:15:33;;;;;;;3.38;2.40;;;6.80;99.90;;;;;;5090620;28;20035;-86
2022/01/01 11:17:59;;;;;;;2.78;2.15;;;6.80;99.90;;;;;;5073470;28;20050;-86
2022/01/01 11:20:35;;;;;;;4.10;2.67;;;6.70;99.90;;;;;;5090442;28;20385;-85
2022/01/01 11:23:03;;;;;;;4.03;2.78;;;6.70;99.90;;;;;;5090343;28;20039;-85
2022/01/01 11:25:29;;;;;;;4.32;2.70;;;6.60;99.90;;;;;;5093116;28;20038;-89
2022/01/01 11:27:55;;;;;;;4.70;3.22;;;6.60;99.90;;;;;;5077012;28;20092;-86
2022/01/01 11:30:27;;;;;;;3.50;2.78;;;6.60;99.90;;;;;;5090068;28;20044;-86
2022/01/01 11:33:03;;;;;;;4.97;3.20;;;6.60;99.90;;;;;;5090576;28;20035;-87
2022/01/01 11:35:38;;;;;;;3.88;2.70;;;6.60;99.90;;;;;;5091391;28;20056;-86
2022/01/01 11:38:15;;;;;;;4.72;3.10;;;6.60;99.90;;;;;;5091981;28;20070;-86
2022/01/01 11:41:04;;;;;;;5.25;3.60;;;6.60;99.90;;;;;;5095553;28;20525;-86
2022/01/01 11:43:46;;;;;;;4.63;3.10;;;6.60;99.90;;;;;;5096476;28;20488;-85
2022/01/01 11:46:20;;;;;;;5.72;4.00;;;6.60;99.90;;;;;;5095807;28;20063;-84
2022/01/01 11:48:54;;;;;;;6.10;4.07;;;6.60;99.90;;;;;;5095508;28;20035;-83
2022/01/01 11:51:23;;;;;;;6.80;4.55;;;6.60;99.90;;;;;;5098583;28;20517;-84
2022/01/01 11:54:14;;;;;;;7.60;4.95;;;6.50;99.90;;;;;;5078604;28;20078;-85
2022/01/01 11:56:50;;;;;;;7.85;5.10;;;6.50;99.90;;;;;;5091791;28;20059;-83
2022/01/01 11:59:46;;;;;;;8.75;4.97;;;6.50;99.90;;;;;;5080565;28;20443;-83
2022/01/01 12:02:18;;;;;;;10.60;5.60;;;6.50;99.90;;;;;;5076545;28;20059;-84
2022/01/01 12:04:45;;;;;;;9.25;5.57;;;6.50;99.90;;;;;;5093022;28;20473;-89
2022/01/01 12:07:11;;;;;;;7.70;5.00;;;6.50;99.90;;;;;;5093572;28;20506;-87
2022/01/01 12:09:58;;;;;;;7.45;5.10;;;6.50;99.90;;;;;;5093497;28;20027;-91
2022/01/01 12:12:59;;;;;;;7.93;5.70;;;6.40;99.90;;;;;;5077113;28;20020;-88
2022/01/01 12:15:43;;;;;;;7.18;4.70;;;6.40;99.90;;;;;;5094112;28;20092;-85
2022/01/01 12:18:20;;;;;;;5.50;4.10;;;6.40;99.90;;;;;;5094096;28;20425;-88
2022/01/01 12:20:57;;;;;;;6.70;4.65;;;6.40;99.90;;;;;;5093186;28;20035;-87
2022/01/01 12:23:25;;;;;;;6.10;4.28;;;6.30;99.90;;;;;;5093495;28;20024;-85
2022/01/01 12:25:53;;;;;;;6.45;4.60;;;6.30;99.90;;;;;;5094254;28;20488;-85
2022/01/01 12:28:31;;;;;;;7.43;5.00;;;6.30;99.90;;;;;;5093182;28;20036;-87
2022/01/01 12:31:10;;;;;;;6.53;4.50;;;6.30;99.90;;;;;;5092651;28;20024;-86
2022/01/01 12:33:36;;;;;;;5.57;3.90;;;6.20;99.90;;;;;;5093687;28;20056;-86
2022/01/01 12:36:06;;;;;;;6.78;4.57;;;6.20;99.90;;;;;;5092417;28;20106;-86
2022/01/01 12:38:34;;;;;;;6.22;4.10;;;6.20;99.90;;;;;;5093734;28;20481;-87
2022/01/01 12:41:08;;;;;;;4.95;3.58;;;6.10;99.90;;;;;;5092941;28;20032;-86
2022/01/01 12:43:50;;;;;;;5.20;3.58;;;6.10;99.90;;;;;;5093846;28;20058;-86
2022/01/01 12:46:21;;;;;;;4.57;3.15;;;6.10;99.90;;;;;;5096901;28;20107;-88
2022/01/01 12:48:47;;;;;;;5.03;3.28;;;6.10;99.90;;;;;;5080752;28;20363;-87
2022/01/01 12:51:16;;;;;;;5.32;3.47;;;6.10;99.90;;;;;;5102296;28;20032;-87
2022/01/01 12:53:47;;;;;;;3.80;2.78;;;6.10;99.90;;;;;;5103832;28;20013;-84
2022/01/01 12:56:15;;;;;;;4.60;3.22;;;6.10;99.90;;;;;;5110695;28;20028;-85
2022/01/01 12:58:46;;;;;;;4.70;2.80;;;6.20;99.90;;;;;;5094530;28;20032;-86
2022/01/01 13:01:13;;;;;;;3.22;2.50;;;6.20;99.90;;;;;;5092230;28;20028;-85
2022/01/01 13:03:40;;;;;;;3.63;2.70;;;6.20;99.90;;;;;;5094273;28;20078;-86
2022/01/01 13:06:08;;;;;;;3.53;2.60;;;6.20;99.90;;;;;;5093760;28;20531;-86
2022/01/01 13:08:40;;;;;;;3.08;2.40;;;6.20;99.90;;;;;;5092713;28;20032;-86
2022/01/01 13:11:13;;;;;;;3.42;2.35;;;6.20;99.90;;;;;;5093245;28;20031;-83
2022/01/01 13:13:39;;;;;;;3.35;2.20;;;6.20;99.90;;;;;;5076501;28;20039;-85
2022/01/01 13:16:05;;;;;;;43.35;26.88;;;6.10;99.90;;;;;;5094879;28;20439;-83
2022/01/01 13:18:32;;;;;;;27.85;17.17;;;6.10;99.90;;;;;;5093918;28;20028;-81
2022/01/01 13:20:58;;;;;;;81.45;48.78;;;6.20;99.90;;;;;;5094220;28;20028;-89
2022/01/01 13:23:25;;;;;;;35.55;21.38;;;6.20;99.90;;;;;;5095882;28;20402;-87
2022/01/01 13:25:52;;;;;;;23.45;14.20;;;6.20;99.90;;;;;;5094177;28;20028;-86
2022/01/01 13:28:21;;;;;;;17.33;9.93;;;6.20;99.90;;;;;;5093286;28;20105;-85
2022/01/01 13:30:48;;;;;;;14.85;9.23;;;6.20;99.90;;;;;;5093106;28;20489;-87
2022/01/01 13:33:15;;;;;;;11.77;7.22;;;6.20;99.90;;;;;;5095231;28;20462;-86
2022/01/01 13:36:00;;;;;;;9.82;5.82;;;6.10;99.90;;;;;;5078446;28;20048;-85
2022/01/01 13:38:28;;;;;;;7.32;4.80;;;6.10;99.90;;;;;;5094506;28;20373;-89
2022/01/01 13:40:57;;;;;;;5.82;3.65;;;6.10;99.90;;;;;;5094519;28;20028;-88
2022/01/01 13:43:55;;;;;;;5.32;3.28;;;6.00;99.90;;;;;;5092887;28;20024;-85